Time;durP1;ratioP1;P1;durP2;ratioP2;P2;SDS_P1;SDS_P2;PMS_P1;PMS_P2;Temp;Humidity;BMP_temperature;BMP_pressure;BME280_temperature;BME280_humidity;BME280_pressure;Samples;Min_cycle;Max_cycle;Signal;HPM_P1;HPM_P2
2021/03/30 00:00:44;;;;;;;2.83;2.63;;;14.20;1.00;;;;;;5052935;28;20477;-79
2021/03/30 00:03:11;;;;;;;5.90;3.20;;;14.20;1.00;;;;;;5049851;28;20483;-79
2021/03/30 00:05:38;;;;;;;4.07;2.30;;;14.20;1.00;;;;;;5049573;28;20545;-80
2021/03/30 00:08:06;;;;;;;4.87;3.40;;;14.10;1.00;;;;;;5061037;28;21033;-80
2021/03/30 00:10:39;;;;;;;2.53;2.30;;;14.10;1.00;;;;;;5058003;28;20499;-79
2021/03/30 00:13:07;;;;;;;4.27;2.43;;;14.00;1.00;;;;;;5065958;28;20467;-79
2021/03/30 00:15:34;;;;;;;6.73;2.53;;;14.00;1.00;;;;;;5056894;28;20443;-79
2021/03/30 00:18:02;;;;;;;3.10;2.33;;;14.00;1.00;;;;;;5063594;28;20439;-79
2021/03/30 00:20:29;;;;;;;4.43;2.90;;;14.00;1.00;;;;;;5063036;28;21037;-80
2021/03/30 00:22:56;;;;;;;2.80;2.60;;;13.90;1.00;;;;;;5058065;28;20450;-80
2021/03/30 00:25:23;;;;;;;5.10;3.20;;;13.90;1.00;;;;;;5065698;28;20811;-79
2021/03/30 00:27:52;;;;;;;3.73;3.13;;;13.90;1.00;;;;;;5054525;28;21092;-79
2021/03/30 00:30:20;;;;;;;3.30;2.53;;;13.90;1.00;;;;;;5054618;28;20474;-80
2021/03/30 00:32:47;;;;;;;3.40;2.37;;;13.80;1.00;;;;;;5057617;28;20455;-78
2021/03/30 00:35:14;;;;;;;3.80;2.00;;;13.80;1.00;;;;;;5056864;28;20476;-79
2021/03/30 00:37:42;;;;;;;3.77;2.77;;;13.80;1.00;;;;;;5064984;28;21336;-80
2021/03/30 00:40:11;;;;;;;2.40;2.20;;;13.70;1.00;;;;;;5057929;28;20482;-78
2021/03/30 00:42:39;;;;;;;3.97;2.50;;;13.70;1.00;;;;;;5062347;28;20492;-79
2021/03/30 00:45:10;;;;;;;3.63;2.67;;;13.70;1.00;;;;;;5062941;28;20528;-78
2021/03/30 00:47:40;;;;;;;3.13;2.03;;;13.60;1.00;;;;;;5055563;28;20471;-79
2021/03/30 00:50:10;;;;;;;3.73;2.23;;;13.50;1.00;;;;;;5051609;28;20496;-79
2021/03/30 00:52:38;;;;;;;5.07;2.50;;;13.50;1.00;;;;;;5058379;28;20460;-79
2021/03/30 00:55:07;;;;;;;3.33;3.00;;;13.50;1.00;;;;;;5058793;28;20642;-79
2021/03/30 00:57:35;;;;;;;3.77;3.40;;;13.50;1.00;;;;;;5058285;28;20453;-80
2021/03/30 01:00:05;;;;;;;3.17;2.10;;;13.50;1.00;;;;;;5055579;28;20471;-79
2021/03/30 01:02:33;;;;;;;3.13;2.40;;;13.40;1.00;;;;;;5055946;28;20986;-77
2021/03/30 01:05:00;;;;;;;2.87;2.20;;;13.40;1.00;;;;;;5061416;28;20470;-78
2021/03/30 01:07:27;;;;;;;4.53;2.63;;;13.40;1.00;;;;;;5063810;28;20451;-76
2021/03/30 01:10:02;;;;;;;2.40;2.10;;;13.40;1.00;;;;;;5052852;28;20474;-77
2021/03/30 01:12:42;;;;;;;2.70;2.27;;;13.40;1.00;;;;;;5060419;28;20471;-77
2021/03/30 01:15:29;;;;;;;2.77;2.37;;;13.40;1.00;;;;;;5056376;28;20447;-78
2021/03/30 01:18:07;;;;;;;4.77;2.93;;;13.40;1.00;;;;;;5064708;28;20953;-78
2021/03/30 01:21:12;;;;;;;3.83;2.80;;;13.30;1.00;;;;;;5045264;28;20483;-77
2021/03/30 01:24:07;;;;;;;3.13;2.50;;;13.20;1.00;;;;;;5057278;28;20823;-78
2021/03/30 01:26:49;;;;;;;3.33;2.33;;;13.20;1.00;;;;;;5055715;28;20955;-78
2021/03/30 01:29:39;;;;;;;4.20;2.33;;;13.10;1.00;;;;;;5058494;28;20534;-78
2021/03/30 01:32:12;;;;;;;2.10;2.00;;;13.00;1.00;;;;;;5052348;28;20463;-77
2021/03/30 01:34:42;;;;;;;3.87;2.30;;;13.00;1.00;;;;;;5055545;28;20459;-78
2021/03/30 01:37:11;;;;;;;3.00;2.70;;;13.00;1.00;;;;;;5057904;28;20482;-81
2021/03/30 01:39:40;;;;;;;4.77;2.10;;;13.00;1.00;;;;;;5060455;28;20451;-80
2021/03/30 01:42:09;;;;;;;2.43;2.23;;;12.90;1.00;;;;;;5065582;28;20467;-79
2021/03/30 01:44:39;;;;;;;3.67;2.50;;;12.90;1.00;;;;;;5071020;28;20460;-79
2021/03/30 01:47:07;;;;;;;2.97;1.90;;;12.80;1.00;;;;;;5077202;28;20459;-80
2021/03/30 01:49:38;;;;;;;2.57;2.10;;;12.80;1.00;;;;;;5060916;28;20498;-79
2021/03/30 01:52:08;;;;;;;3.07;1.97;;;12.90;1.00;;;;;;5061920;28;20453;-78
2021/03/30 01:54:37;;;;;;;3.17;2.07;;;12.90;1.00;;;;;;5054736;28;20452;-79
2021/03/30 01:57:07;;;;;;;3.47;2.47;;;12.90;1.00;;;;;;5064822;28;20826;-79
2021/03/30 01:59:35;;;;;;;3.40;2.30;;;12.90;1.00;;;;;;5064287;28;20436;-78
2021/03/30 02:02:05;;;;;;;2.80;1.83;;;12.90;1.00;;;;;;5051019;28;20734;-79
2021/03/30 02:04:33;;;;;;;3.77;2.30;;;12.90;1.00;;;;;;5063148;28;20445;-79
2021/03/30 02:07:01;;;;;;;5.13;2.00;;;12.80;1.00;;;;;;5065255;28;20453;-79
2021/03/30 02:09:32;;;;;;;4.07;3.20;;;12.80;1.00;;;;;;5064856;28;20470;-79
2021/03/30 02:12:00;;;;;;;6.03;2.27;;;12.80;1.00;;;;;;5053551;28;20492;-79
2021/03/30 02:14:27;;;;;;;2.03;1.83;;;12.70;1.00;;;;;;5067301;28;21266;-79
2021/03/30 02:17:00;;;;;;;2.50;2.30;;;12.60;1.00;;;;;;5060702;28;20820;-80
2021/03/30 02:19:34;;;;;;;2.10;1.80;;;12.60;1.00;;;;;;5065135;28;20882;-79
2021/03/30 02:22:08;;;;;;;4.57;2.07;;;12.60;1.00;;;;;;5057660;28;21031;-79
2021/03/30 02:24:40;;;;;;;2.60;2.40;;;12.60;1.00;;;;;;5061356;28;20494;-79
2021/03/30 02:27:11;;;;;;;4.47;2.20;;;12.60;1.00;;;;;;5062717;28;20439;-79
2021/03/30 02:29:40;;;;;;;3.17;2.07;;;12.60;1.00;;;;;;5060050;28;20474;-79
2021/03/30 02:32:12;;;;;;;6.07;2.37;;;12.60;1.00;;;;;;5062652;28;20443;-81
2021/03/30 02:34:41;;;;;;;2.50;2.03;;;12.50;1.00;;;;;;5060767;28;20451;-81
2021/03/30 02:37:09;;;;;;;2.17;1.87;;;12.50;1.00;;;;;;5067874;28;20467;-78
2021/03/30 02:39:36;;;;;;;2.37;2.17;;;12.50;1.00;;;;;;5056380;28;20446;-79
2021/03/30 02:42:04;;;;;;;3.20;2.20;;;12.50;1.00;;;;;;5056843;28;20979;-79
2021/03/30 02:44:33;;;;;;;1.97;1.87;;;12.40;1.00;;;;;;5054481;28;20465;-78
2021/03/30 02:47:00;;;;;;;3.60;2.70;;;12.40;1.00;;;;;;5051005;28;20462;-78
2021/03/30 02:49:29;;;;;;;2.60;2.40;;;12.40;1.00;;;;;;5053763;28;20478;-79
2021/03/30 02:51:59;;;;;;;3.27;2.33;;;12.40;1.00;;;;;;5045530;28;20483;-77
2021/03/30 02:54:27;;;;;;;5.23;3.80;;;12.40;1.00;;;;;;5062398;28;20514;-78
2021/03/30 02:56:59;;;;;;;2.00;1.90;;;12.30;1.00;;;;;;5054755;28;20462;-78
2021/03/30 02:59:28;;;;;;;2.63;1.80;;;12.40;1.00;;;;;;5047989;28;20467;-78
2021/03/30 03:01:57;;;;;;;3.27;2.03;;;12.30;1.00;;;;;;5048058;28;20475;-79
2021/03/30 03:04:26;;;;;;;2.50;1.80;;;12.30;1.00;;;;;;5057644;28;20455;-79
2021/03/30 03:06:54;;;;;;;2.60;2.23;;;12.20;1.00;;;;;;5053305;28;20456;-78
2021/03/30 03:09:22;;;;;;;2.27;2.07;;;12.20;1.00;;;;;;5053364;28;20529;-79
2021/03/30 03:11:51;;;;;;;4.00;2.60;;;12.20;1.00;;;;;;5052844;28;20478;-78
2021/03/30 03:14:21;;;;;;;2.77;2.50;;;12.20;1.00;;;;;;5062076;28;20435;-79
2021/03/30 03:16:48;;;;;;;4.00;2.40;;;12.20;1.00;;;;;;5054680;28;20537;-78
2021/03/30 03:19:16;;;;;;;2.70;1.80;;;12.20;1.00;;;;;;5061214;28;20926;-79
2021/03/30 03:21:44;;;;;;;2.60;2.17;;;12.20;1.00;;;;;;5060459;28;20489;-79
2021/03/30 03:24:13;;;;;;;4.83;2.23;;;12.20;1.00;;;;;;5059751;28;20459;-79
2021/03/30 03:26:41;;;;;;;3.23;1.83;;;12.20;1.00;;;;;;5055565;28;20516;-79
2021/03/30 03:29:11;;;;;;;2.00;1.60;;;12.10;1.00;;;;;;5064930;28;21046;-77
2021/03/30 03:31:39;;;;;;;2.50;2.00;;;12.10;1.00;;;;;;5056155;28;20522;-79
2021/03/30 03:34:06;;;;;;;2.20;2.00;;;12.00;1.00;;;;;;5058770;28;20490;-79
2021/03/30 03:36:38;;;;;;;3.00;1.70;;;12.00;1.00;;;;;;5052770;28;20448;-79
2021/03/30 03:39:08;;;;;;;3.53;1.90;;;12.00;1.00;;;;;;5059658;28;20448;-79
2021/03/30 03:41:35;;;;;;;3.80;2.67;;;12.00;1.00;;;;;;5059157;28;20487;-79
2021/03/30 03:44:04;;;;;;;2.43;2.00;;;12.00;1.00;;;;;;5071644;28;20462;-79
2021/03/30 03:46:31;;;;;;;4.53;2.27;;;12.00;1.00;;;;;;5064528;28;20990;-80
2021/03/30 03:48:59;;;;;;;2.67;1.80;;;12.00;1.00;;;;;;5059951;28;20985;-79
2021/03/30 03:51:29;;;;;;;2.73;2.00;;;11.90;1.00;;;;;;5058426;28;20493;-80
2021/03/30 03:53:58;;;;;;;3.20;1.70;;;11.90;1.00;;;;;;5063886;28;20446;-80
2021/03/30 03:56:29;;;;;;;3.13;2.03;;;11.90;1.00;;;;;;5062841;28;20962;-80
2021/03/30 03:59:00;;;;;;;3.40;2.90;;;11.80;1.00;;;;;;5066110;28;20438;-79
2021/03/30 04:01:38;;;;;;;3.50;2.77;;;11.90;1.00;;;;;;5068485;28;20904;-80
2021/03/30 04:04:09;;;;;;;2.60;1.80;;;11.80;1.00;;;;;;5066730;28;20443;-80
2021/03/30 04:06:43;;;;;;;4.10;2.67;;;11.80;1.00;;;;;;5067072;28;20886;-78
2021/03/30 04:09:16;;;;;;;3.70;3.00;;;11.80;1.00;;;;;;5065627;28;20486;-79
2021/03/30 04:11:44;;;;;;;6.03;2.70;;;11.80;1.00;;;;;;5063957;28;20999;-79
2021/03/30 04:14:12;;;;;;;3.83;2.33;;;11.70;1.00;;;;;;5069258;28;20878;-81
2021/03/30 04:16:40;;;;;;;3.47;2.67;;;11.70;1.00;;;;;;5062430;28;20565;-81
2021/03/30 04:19:10;;;;;;;4.07;2.80;;;11.60;1.00;;;;;;5059741;28;20456;-80
2021/03/30 04:21:38;;;;;;;3.13;2.47;;;11.60;1.00;;;;;;5064629;28;20474;-82
2021/03/30 04:24:07;;;;;;;2.90;2.40;;;11.60;1.00;;;;;;5053842;28;21146;-80
2021/03/30 04:26:38;;;;;;;2.30;2.10;;;11.60;1.00;;;;;;5060830;28;20459;-79
2021/03/30 04:29:07;;;;;;;2.37;2.10;;;11.60;1.00;;;;;;5069795;28;20986;-80
2021/03/30 04:31:35;;;;;;;4.37;2.07;;;11.60;1.00;;;;;;5059588;28;20490;-81
2021/03/30 04:34:03;;;;;;;3.33;2.80;;;11.60;1.00;;;;;;5062933;28;20534;-79
2021/03/30 04:36:30;;;;;;;2.10;2.00;;;11.50;1.00;;;;;;5054299;28;20487;-80
2021/03/30 04:38:58;;;;;;;3.07;1.67;;;11.50;1.00;;;;;;5059900;28;20447;-79
2021/03/30 04:41:25;;;;;;;2.47;1.90;;;11.40;1.00;;;;;;5046746;28;20488;-78
2021/03/30 04:43:52;;;;;;;4.80;2.17;;;11.50;1.00;;;;;;5043541;28;20874;-82
2021/03/30 04:46:19;;;;;;;4.47;2.10;;;11.50;1.00;;;;;;5054841;28;20464;-80
2021/03/30 04:48:46;;;;;;;2.90;2.13;;;11.40;1.00;;;;;;5053913;28;20606;-82
2021/03/30 04:51:14;;;;;;;2.27;1.73;;;11.40;1.00;;;;;;5049062;28;21073;-80
2021/03/30 04:53:41;;;;;;;2.40;1.93;;;11.40;1.00;;;;;;5049304;28;20466;-81
2021/03/30 04:56:08;;;;;;;4.43;2.00;;;11.40;1.00;;;;;;5046499;28;20463;-80
2021/03/30 04:58:36;;;;;;;5.13;2.20;;;11.40;1.00;;;;;;5043546;28;20462;-78
2021/03/30 05:01:03;;;;;;;2.10;1.87;;;11.40;1.00;;;;;;5043345;28;20475;-78
2021/03/30 05:03:31;;;;;;;3.50;2.47;;;11.40;1.00;;;;;;5043308;28;20464;-79
2021/03/30 05:05:58;;;;;;;4.50;2.00;;;11.30;1.00;;;;;;5047740;28;20470;-79
2021/03/30 05:08:26;;;;;;;3.97;2.17;;;11.30;1.00;;;;;;5049306;28;20459;-78
2021/03/30 05:10:53;;;;;;;2.53;2.33;;;11.30;1.00;;;;;;5046532;28;20526;-79
2021/03/30 05:13:21;;;;;;;3.40;2.40;;;11.10;1.00;;;;;;5052105;28;20458;-80
2021/03/30 05:15:48;;;;;;;5.33;2.60;;;11.30;1.00;;;;;;5056925;28;20513;-78
2021/03/30 05:18:15;;;;;;;3.17;1.83;;;11.30;1.00;;;;;;5050850;28;20461;-79
2021/03/30 05:20:43;;;;;;;4.23;2.40;;;11.30;1.00;;;;;;5048697;28;20834;-78
2021/03/30 05:23:10;;;;;;;1.97;1.80;;;11.30;1.00;;;;;;5051073;28;21019;-79
2021/03/30 05:25:39;;;;;;;3.33;2.77;;;11.20;1.00;;;;;;5060834;28;20478;-81
2021/03/30 05:28:07;;;;;;;3.93;2.80;;;11.30;1.00;;;;;;5061685;28;20546;-79
2021/03/30 05:30:35;;;;;;;4.20;2.40;;;11.30;1.00;;;;;;5060574;28;20482;-79
2021/03/30 05:33:02;;;;;;;4.30;2.27;;;11.20;1.00;;;;;;5050588;28;20553;-79
2021/03/30 05:35:30;;;;;;;2.70;2.50;;;11.20;1.00;;;;;;5061246;28;20962;-78
2021/03/30 05:37:57;;;;;;;5.00;2.90;;;11.20;1.00;;;;;;5063746;28;21039;-78
2021/03/30 05:40:24;;;;;;;3.63;2.50;;;11.20;1.00;;;;;;5051314;28;20470;-78
2021/03/30 05:42:53;;;;;;;3.10;2.73;;;11.30;1.00;;;;;;5058996;28;20482;-78
2021/03/30 05:45:22;;;;;;;3.73;2.50;;;11.30;1.00;;;;;;5053452;28;20550;-77
2021/03/30 05:47:50;;;;;;;3.83;2.17;;;11.20;1.00;;;;;;5054128;28;20456;-78
2021/03/30 05:50:19;;;;;;;3.77;2.57;;;11.30;1.00;;;;;;5046643;28;20482;-79
2021/03/30 05:52:49;;;;;;;4.37;2.70;;;11.30;1.00;;;;;;5062639;28;20458;-78
2021/03/30 05:55:22;;;;;;;4.20;3.37;;;11.20;1.00;;;;;;5059126;28;20485;-78
2021/03/30 05:57:50;;;;;;;4.60;3.47;;;11.30;1.00;;;;;;5062518;28;20989;-78
2021/03/30 06:00:21;;;;;;;5.70;2.83;;;11.30;1.00;;;;;;5062077;28;20477;-77
2021/03/30 06:02:52;;;;;;;5.23;1.97;;;11.30;1.00;;;;;;5051837;28;20550;-77
2021/03/30 06:05:23;;;;;;;4.40;3.50;;;11.40;1.00;;;;;;5055056;28;20458;-78
2021/03/30 06:07:53;;;;;;;2.63;2.43;;;11.30;1.00;;;;;;5047789;28;20446;-77
2021/03/30 06:10:23;;;;;;;3.67;3.03;;;11.40;1.00;;;;;;5047645;28;21075;-79
2021/03/30 06:12:57;;;;;;;4.10;3.80;;;11.40;1.00;;;;;;5050462;28;20463;-78
2021/03/30 06:15:28;;;;;;;7.43;3.90;;;11.40;1.00;;;;;;5055993;28;20458;-78
2021/03/30 06:17:56;;;;;;;5.63;3.80;;;11.40;1.00;;;;;;5063328;28;20462;-80
2021/03/30 06:20:29;;;;;;;14.00;3.67;;;11.50;1.00;;;;;;5050075;28;21076;-79
2021/03/30 06:22:59;;;;;;;4.50;3.60;;;11.50;1.00;;;;;;5056194;28;22684;-79
2021/03/30 06:25:37;;;;;;;3.40;2.67;;;11.60;1.00;;;;;;5052377;28;20458;-78
2021/03/30 06:28:16;;;;;;;3.03;2.83;;;11.70;1.00;;;;;;5058461;28;20450;-78
2021/03/30 06:31:03;;;;;;;4.47;3.37;;;11.90;1.00;;;;;;5053856;28;20468;-79
2021/03/30 06:33:32;;;;;;;2.80;2.60;;;12.00;1.00;;;;;;5064788;28;20452;-82
2021/03/30 06:36:23;;;;;;;4.57;3.37;;;12.10;1.00;;;;;;5056800;28;20456;-81
2021/03/30 06:38:56;;;;;;;4.80;3.00;;;12.20;1.00;;;;;;5054379;28;20461;-80
2021/03/30 06:41:37;;;;;;;6.83;4.50;;;12.30;1.00;;;;;;5060266;28;20478;-80
2021/03/30 06:44:26;;;;;;;4.37;3.30;;;12.30;1.00;;;;;;5051722;28;20832;-80
2021/03/30 06:47:06;;;;;;;4.20;2.83;;;12.50;1.00;;;;;;5050809;28;20466;-79
2021/03/30 06:49:35;;;;;;;4.93;3.40;;;12.60;1.00;;;;;;5048291;28;21259;-79
2021/03/30 06:52:14;;;;;;;4.90;3.87;;;12.60;1.00;;;;;;5049514;28;20495;-80
2021/03/30 06:54:59;;;;;;;5.23;3.87;;;12.80;1.40;;;;;;5052075;28;20470;-80
2021/03/30 06:57:37;;;;;;;5.90;3.30;;;12.90;2.00;;;;;;5056399;28;20485;-79
2021/03/30 07:00:07;;;;;;;3.73;3.43;;;13.00;1.80;;;;;;5051019;28;20467;-80
2021/03/30 07:02:39;;;;;;;5.67;3.57;;;13.10;3.30;;;;;;5048370;28;20459;-79
2021/03/30 07:05:08;;;;;;;3.83;3.03;;;13.20;3.70;;;;;;5050266;28;21030;-81
2021/03/30 07:07:37;;;;;;;3.10;2.70;;;13.30;4.30;;;;;;5053559;28;20460;-79
2021/03/30 07:10:06;;;;;;;5.22;4.30;;;13.40;5.30;;;;;;5054761;28;20447;-83
2021/03/30 07:12:33;;;;;;;4.87;4.40;;;13.40;5.40;;;;;;5058513;28;20202;-81
2021/03/30 07:15:01;;;;;;;4.90;3.60;;;13.50;6.80;;;;;;5052219;28;20457;-82
2021/03/30 07:17:31;;;;;;;4.40;4.00;;;13.70;8.60;;;;;;5048846;28;20511;-81
2021/03/30 07:20:04;;;;;;;7.13;4.20;;;13.70;7.90;;;;;;5046911;28;20443;-81
2021/03/30 07:22:34;;;;;;;3.97;3.60;;;13.80;7.80;;;;;;5055991;28;20521;-82
2021/03/30 07:25:04;;;;;;;6.57;3.10;;;14.00;8.70;;;;;;5063866;28;20546;-81
2021/03/30 07:27:44;;;;;;;7.47;4.43;;;14.10;7.30;;;;;;5056964;28;20463;-81
2021/03/30 07:30:14;;;;;;;4.10;3.40;;;14.30;8.40;;;;;;5062771;28;20482;-82
2021/03/30 07:32:59;;;;;;;7.10;3.37;;;14.40;9.10;;;;;;5060929;28;20468;-79
2021/03/30 07:35:29;;;;;;;4.70;3.90;;;14.60;9.10;;;;;;5072753;28;20470;-83
2021/03/30 07:38:04;;;;;;;4.07;3.40;;;14.70;10.40;;;;;;5068414;28;20467;-82
2021/03/30 07:40:31;;;;;;;5.47;3.80;;;14.80;10.80;;;;;;5061002;28;21145;-82
2021/03/30 07:42:59;;;;;;;3.93;3.53;;;15.00;12.80;;;;;;5058173;28;20840;-82
2021/03/30 07:45:30;;;;;;;6.47;4.33;;;15.10;13.80;;;;;;5059313;28;20512;-79
2021/03/30 07:47:58;;;;;;;3.93;3.20;;;15.30;14.20;;;;;;5061393;28;20509;-81
2021/03/30 07:50:48;;;;;;;4.47;3.30;;;15.40;14.30;;;;;;5057323;28;20489;-82
2021/03/30 07:53:42;;;;;;;3.97;2.90;;;15.60;16.50;;;;;;5060698;28;20473;-82
2021/03/30 07:56:11;;;;;;;2.73;2.43;;;15.90;17.60;;;;;;5059098;28;20892;-80
2021/03/30 07:58:43;;;;;;;3.40;3.03;;;16.10;20.20;;;;;;5051908;28;20706;-80
2021/03/30 08:01:11;;;;;;;8.77;2.40;;;16.40;20.40;;;;;;5058970;28;20467;-82
2021/03/30 08:03:40;;;;;;;2.33;2.13;;;16.70;22.30;;;;;;5055813;28;20452;-81
2021/03/30 08:06:24;;;;;;;2.40;2.20;;;16.90;22.20;;;;;;5057586;28;20457;-83
2021/03/30 08:09:16;;;;;;;9.03;3.20;;;17.20;25.40;;;;;;5053122;28;20816;-83
2021/03/30 08:11:52;;;;;;;2.97;2.60;;;17.50;26.60;;;;;;5054685;28;20474;-81
2021/03/30 08:14:42;;;;;;;5.43;2.30;;;17.70;28.10;;;;;;5053665;28;20475;-81
2021/03/30 08:17:21;;;;;;;5.70;3.13;;;18.00;30.70;;;;;;5057718;28;20447;-82
2021/03/30 08:20:02;;;;;;;4.43;2.80;;;18.30;32.90;;;;;;5069456;28;20459;-82
2021/03/30 08:23:01;;;;;;;4.50;3.80;;;18.40;33.50;;;;;;5055461;28;20529;-81
2021/03/30 08:25:28;;;;;;;4.50;2.77;;;18.40;31.80;;;;;;5054528;28;21015;-82
2021/03/30 08:27:55;;;;;;;5.83;3.07;;;18.40;34.20;;;;;;5057013;28;20460;-81
2021/03/30 08:30:53;;;;;;;2.73;2.50;;;18.40;34.20;;;;;;5053703;28;20487;-81
2021/03/30 08:33:24;;;;;;;4.03;3.30;;;18.50;32.30;;;;;;5055175;28;20445;-82
2021/03/30 08:35:52;;;;;;;3.07;2.70;;;18.50;32.00;;;;;;5056304;28;20480;-82
2021/03/30 08:38:41;;;;;;;4.50;3.30;;;18.60;34.20;;;;;;5052612;28;20460;-81
2021/03/30 08:41:09;;;;;;;2.50;2.30;;;18.60;33.10;;;;;;5053851;28;20471;-82
2021/03/30 08:43:36;;;;;;;4.57;3.33;;;18.60;35.80;;;;;;5054013;28;20950;-82
2021/03/30 08:46:08;;;;;;;3.83;2.43;;;18.70;37.20;;;;;;5052509;28;20463;-82
2021/03/30 08:48:38;;;;;;;6.03;3.20;;;18.70;38.20;;;;;;5069129;28;20456;-83
2021/03/30 08:51:07;;;;;;;3.20;2.90;;;18.70;38.30;;;;;;5053344;28;20518;-81
2021/03/30 08:53:35;;;;;;;5.20;3.10;;;18.80;38.90;;;;;;5053520;28;20454;-81
2021/03/30 08:56:09;;;;;;;6.27;3.67;;;18.80;39.00;;;;;;5057038;28;20994;-81
2021/03/30 08:58:42;;;;;;;5.20;3.00;;;18.90;39.00;;;;;;5061900;28;20467;-81
2021/03/30 09:01:09;;;;;;;4.50;2.67;;;18.90;39.30;;;;;;5067459;28;20481;-82
2021/03/30 09:03:37;;;;;;;3.03;2.73;;;19.00;40.90;;;;;;5065927;28;20468;-80
2021/03/30 09:06:05;;;;;;;3.13;2.93;;;19.10;40.60;;;;;;5073057;28;20451;-81
2021/03/30 09:08:37;;;;;;;5.30;3.60;;;19.10;41.90;;;;;;5066622;28;20545;-80
2021/03/30 09:11:20;;;;;;;5.60;3.03;;;19.10;42.00;;;;;;5054211;28;20514;-80
2021/03/30 09:14:05;;;;;;;5.00;2.70;;;19.20;41.60;;;;;;5059514;28;20881;-79
2021/03/30 09:16:33;;;;;;;4.53;2.33;;;19.30;43.20;;;;;;5056136;28;20466;-82
2021/03/30 09:19:17;;;;;;;3.80;2.77;;;19.40;42.20;;;;;;5055439;28;20810;-81
2021/03/30 09:21:46;;;;;;;3.23;2.67;;;19.40;39.70;;;;;;5055839;28;20481;-80
2021/03/30 09:24:33;;;;;;;2.67;2.47;;;19.50;41.20;;;;;;5054522;28;20448;-81
2021/03/30 09:27:02;;;;;;;2.30;1.90;;;19.60;38.90;;;;;;5063734;28;20454;-82
2021/03/30 09:29:31;;;;;;;11.03;2.83;;;19.70;41.70;;;;;;5052667;28;20461;-81
2021/03/30 09:31:59;;;;;;;2.13;2.03;;;19.70;39.30;;;;;;5054715;28;20481;-81
2021/03/30 09:34:26;;;;;;;4.20;2.30;;;19.70;53.50;;;;;;5053846;28;20575;-80
2021/03/30 09:36:58;;;;;;;4.13;2.50;;;19.70;38.20;;;;;;5058787;28;20467;-82
2021/03/30 09:39:27;;;;;;;2.20;2.00;;;19.60;36.60;;;;;;5050861;28;20448;-81
2021/03/30 09:41:56;;;;;;;2.73;2.10;;;19.90;38.40;;;;;;5058591;28;20471;-81
2021/03/30 09:44:25;;;;;;;4.77;2.60;;;19.90;37.80;;;;;;5053409;28;20475;-82
2021/03/30 09:46:56;;;;;;;3.10;2.03;;;20.00;39.60;;;;;;5055628;28;20494;-82
2021/03/30 09:49:26;;;;;;;4.37;2.47;;;20.00;38.70;;;;;;5055489;28;20459;-81
2021/03/30 09:51:54;;;;;;;2.63;2.40;;;20.00;37.40;;;;;;5057058;28;20523;-81
2021/03/30 09:54:27;;;;;;;4.40;2.07;;;20.10;38.00;;;;;;5055608;28;20485;-81
2021/03/30 09:57:00;;;;;;;1.93;1.83;;;20.20;41.00;;;;;;5053844;28;20460;-82
2021/03/30 09:59:29;;;;;;;2.33;2.13;;;20.30;42.10;;;;;;5052359;28;20485;-81
2021/03/30 10:01:58;;;;;;;2.40;2.20;;;20.40;42.20;;;;;;5053584;28;20490;-80
2021/03/30 10:04:25;;;;;;;2.43;2.23;;;20.40;40.30;;;;;;5051877;28;20446;-81
2021/03/30 10:06:55;;;;;;;2.50;1.97;;;20.40;41.20;;;;;;5052987;28;20459;-80
2021/03/30 10:09:22;;;;;;;3.77;2.20;;;20.40;40.20;;;;;;5051991;28;20447;-79
2021/03/30 10:11:51;;;;;;;2.80;2.50;;;20.50;42.70;;;;;;5070476;28;20484;-81
2021/03/30 10:14:46;;;;;;;3.00;2.03;;;20.70;45.20;;;;;;5050974;28;20534;-81
2021/03/30 10:17:14;;;;;;;2.47;2.27;;;20.80;46.70;;;;;;5053594;28;21099;-81
2021/03/30 10:19:47;;;;;;;2.70;2.27;;;20.70;45.50;;;;;;5055165;28;20476;-81
2021/03/30 10:22:23;;;;;;;2.50;2.27;;;20.80;44.30;;;;;;5053149;28;20828;-80
2021/03/30 10:25:13;;;;;;;1.90;1.80;;;20.90;47.50;;;;;;5055056;28;20462;-80
2021/03/30 10:27:48;;;;;;;2.50;2.00;;;21.10;46.80;;;;;;5050096;28;20451;-81
2021/03/30 10:30:19;;;;;;;1.80;1.70;;;21.10;46.40;;;;;;5060983;28;20493;-81
2021/03/30 10:32:48;;;;;;;2.80;1.83;;;21.00;45.80;;;;;;5049948;28;20448;-80
2021/03/30 10:35:16;;;;;;;2.37;2.00;;;21.10;47.50;;;;;;5055537;28;20569;-78
2021/03/30 10:37:44;;;;;;;2.03;1.70;;;21.30;48.50;;;;;;5048703;28;20451;-81
2021/03/30 10:40:12;;;;;;;4.70;1.50;;;21.20;48.20;;;;;;5052366;28;20461;-81
2021/03/30 10:42:40;;;;;;;2.33;2.03;;;21.30;50.00;;;;;;5050640;28;20442;-80
2021/03/30 10:45:10;;;;;;;1.87;1.60;;;21.30;47.90;;;;;;5053032;28;20838;-80
2021/03/30 10:47:40;;;;;;;1.70;1.60;;;21.30;49.30;;;;;;5050039;28;20463;-80
2021/03/30 10:50:10;;;;;;;2.43;2.17;;;21.40;48.90;;;;;;5048179;28;20485;-80
2021/03/30 10:52:38;;;;;;;1.90;1.80;;;21.30;47.50;;;;;;5049575;28;21246;-80
2021/03/30 10:55:08;;;;;;;2.37;2.00;;;21.30;48.00;;;;;;5049258;28;20523;-82
2021/03/30 10:57:36;;;;;;;2.10;1.57;;;21.30;48.20;;;;;;5047690;28;23133;-80
2021/03/30 11:00:06;;;;;;;4.83;1.93;;;21.40;50.40;;;;;;5050944;28;20478;-80
2021/03/30 11:02:33;;;;;;;1.80;1.70;;;21.50;50.80;;;;;;5050444;28;20454;-82
2021/03/30 11:05:01;;;;;;;3.63;1.77;;;21.60;52.40;;;;;;5056163;28;20484;-80
2021/03/30 11:07:28;;;;;;;4.20;1.63;;;21.60;52.40;;;;;;5055206;28;20452;-80
2021/03/30 11:09:55;;;;;;;1.77;1.67;;;21.60;51.60;;;;;;5062421;28;21005;-80
2021/03/30 11:12:22;;;;;;;1.80;1.70;;;21.70;52.40;;;;;;5059093;28;20463;-79
2021/03/30 11:14:50;;;;;;;3.27;1.53;;;21.80;53.10;;;;;;5068840;28;20462;-78
2021/03/30 11:17:17;;;;;;;5.90;1.73;;;21.80;52.40;;;;;;5053301;28;20447;-81
2021/03/30 11:19:44;;;;;;;2.57;1.60;;;21.80;52.50;;;;;;5052821;28;20462;-78
2021/03/30 11:22:12;;;;;;;2.87;1.60;;;21.80;52.70;;;;;;5058689;28;20450;-81
2021/03/30 11:24:40;;;;;;;1.50;1.40;;;21.90;54.00;;;;;;5050502;28;20458;-80
2021/03/30 11:27:08;;;;;;;2.10;1.43;;;21.90;52.20;;;;;;5053282;28;20460;-81
2021/03/30 11:29:41;;;;;;;1.97;1.10;;;22.00;53.00;;;;;;5049862;28;20468;-80
2021/03/30 11:34:48;;;;;;;3.67;1.20;;;22.20;52.00;;;;;;5047757;28;20479;-79
2021/03/30 11:37:32;;;;;;;1.40;1.10;;;22.20;51.40;;;;;;5060166;28;20461;-79
2021/03/30 11:40:00;;;;;;;1.73;1.00;;;22.20;48.60;;;;;;5053447;28;20451;-80
2021/03/30 11:42:27;;;;;;;1.23;1.00;;;22.10;48.50;;;;;;5057545;28;20455;-79
2021/03/30 11:44:54;;;;;;;1.90;1.23;;;22.20;47.10;;;;;;5071112;28;20461;-79
2021/03/30 11:47:21;;;;;;;1.77;0.93;;;22.20;46.20;;;;;;5057792;28;20458;-78
2021/03/30 11:49:48;;;;;;;3.93;1.40;;;22.10;45.60;;;;;;5058676;28;20457;-79
2021/03/30 11:52:17;;;;;;;2.10;1.10;;;22.20;49.50;;;;;;5061611;28;20466;-79
2021/03/30 11:54:45;;;;;;;1.73;1.20;;;22.40;50.60;;;;;;5053473;28;20460;-80
2021/03/30 11:57:12;;;;;;;1.37;1.23;;;22.50;50.80;;;;;;5066073;28;21782;-80
2021/03/30 11:59:39;;;;;;;1.83;1.20;;;22.50;51.90;;;;;;5053156;28;20447;-78
2021/03/30 12:02:06;;;;;;;1.50;1.40;;;22.60;52.60;;;;;;5055861;28;20611;-78
2021/03/30 12:04:33;;;;;;;1.73;1.23;;;22.60;55.10;;;;;;5066790;28;20454;-80
2021/03/30 12:07:01;;;;;;;1.87;1.30;;;22.70;54.80;;;;;;5064658;28;20500;-79
2021/03/30 12:09:29;;;;;;;1.87;1.60;;;22.80;55.90;;;;;;5061640;28;20850;-81
2021/03/30 12:11:56;;;;;;;2.33;1.47;;;22.90;56.40;;;;;;5063780;28;20498;-80
2021/03/30 12:14:23;;;;;;;2.53;1.50;;;22.90;56.60;;;;;;5066640;28;20466;-80
2021/03/30 12:16:51;;;;;;;1.30;1.20;;;22.90;56.40;;;;;;5059756;28;20458;-79
2021/03/30 12:19:19;;;;;;;1.93;1.60;;;23.00;57.10;;;;;;5049571;28;20528;-79
2021/03/30 12:21:47;;;;;;;2.60;1.67;;;23.00;55.70;;;;;;5053055;28;20477;-82
2021/03/30 12:24:14;;;;;;;1.93;1.50;;;23.00;57.00;;;;;;5053134;28;20471;-81
2021/03/30 12:26:42;;;;;;;3.00;1.30;;;23.00;59.10;;;;;;5052662;28;20457;-83
2021/03/30 12:29:10;;;;;;;1.60;1.30;;;23.00;58.70;;;;;;5056308;28;20447;-84
2021/03/30 12:31:37;;;;;;;1.40;1.30;;;23.10;61.50;;;;;;5056978;28;20493;-75
2021/03/30 12:34:04;;;;;;;2.53;1.40;;;23.20;64.90;;;;;;5052270;28;20447;-80
2021/03/30 12:36:42;;;;;;;2.30;1.30;;;23.20;61.80;;;;;;5056267;28;20835;-83
2021/03/30 12:39:14;;;;;;;2.23;1.40;;;23.20;58.50;;;;;;5056795;28;20457;-80
2021/03/30 12:41:42;;;;;;;2.07;1.40;;;23.30;63.90;;;;;;5055219;28;21081;-83
2021/03/30 12:44:25;;;;;;;4.23;1.20;;;23.30;63.10;;;;;;5056129;28;20462;-82
2021/03/30 12:47:03;;;;;;;1.23;1.13;;;23.30;66.70;;;;;;5053553;28;20461;-81
2021/03/30 12:49:44;;;;;;;2.07;1.20;;;23.40;72.20;;;;;;5048728;28;20459;-83
2021/03/30 12:52:11;;;;;;;2.90;1.60;;;23.50;77.50;;;;;;5050359;28;20490;-78
2021/03/30 12:54:38;;;;;;;2.33;1.50;;;23.50;70.30;;;;;;5046922;28;20454;-79
2021/03/30 12:57:07;;;;;;;3.57;2.40;;;23.50;76.30;;;;;;5056854;28;20521;-83
2021/03/30 12:59:38;;;;;;;2.10;1.90;;;23.50;68.70;;;;;;5053038;28;20488;-82
2021/03/30 13:02:05;;;;;;;4.60;2.13;;;23.40;64.80;;;;;;5058589;28;20466;-83
2021/03/30 13:04:32;;;;;;;2.67;2.07;;;23.40;70.00;;;;;;5056937;28;20459;-83
2021/03/30 13:06:59;;;;;;;4.13;2.10;;;23.50;64.20;;;;;;5056956;28;20477;-79
2021/03/30 13:09:27;;;;;;;2.37;1.90;;;23.40;61.60;;;;;;5054184;28;20497;-82
2021/03/30 13:11:54;;;;;;;2.00;1.80;;;23.40;63.10;;;;;;5050862;28;20581;-83
2021/03/30 13:14:22;;;;;;;5.40;2.17;;;23.50;61.80;;;;;;5050151;28;21002;-83